sensor_id;sensor_type;location;lat;lon;timestamp;P1;durP1;ratioP1;P2;durP2;ratioP2
8435;SDS011;4255;48.730;9.156;2023-03-29T00:00:18;4.60;;;4.20;;
8435;SDS011;4255;48.730;9.156;2023-03-29T00:02:45;4.40;;;4.00;;
8435;SDS011;4255;48.730;9.156;2023-03-29T00:05:12;3.78;;;3.45;;
8435;SDS011;4255;48.730;9.156;2023-03-29T00:07:42;4.28;;;3.80;;
8435;SDS011;4255;48.730;9.156;2023-03-29T00:10:08;4.47;;;3.90;;
8435;SDS011;4255;48.730;9.156;2023-03-29T00:12:36;5.57;;;4.72;;
8435;SDS011;4255;48.730;9.156;2023-03-29T00:15:03;4.60;;;4.20;;
8435;SDS011;4255;48.730;9.156;2023-03-29T00:17:30;4.85;;;4.45;;
8435;SDS011;4255;48.730;9.156;2023-03-29T00:19:56;4.72;;;3.75;;
8435;SDS011;4255;48.730;9.156;2023-03-29T00:22:22;4.43;;;4.00;;
8435;SDS011;4255;48.730;9.156;2023-03-29T00:24:51;4.43;;;4.03;;
8435;SDS011;4255;48.730;9.156;2023-03-29T00:27:18;5.90;;;3.38;;
8435;SDS011;4255;48.730;9.156;2023-03-29T00:29:45;4.53;;;4.13;;
8435;SDS011;4255;48.730;9.156;2023-03-29T00:32:11;4.83;;;4.43;;
8435;SDS011;4255;48.730;9.156;2023-03-29T00:34:37;8.60;;;4.47;;
8435;SDS011;4255;48.730;9.156;2023-03-29T00:37:06;3.97;;;3.67;;
8435;SDS011;4255;48.730;9.156;2023-03-29T00:39:33;5.65;;;4.07;;
8435;SDS011;4255;48.730;9.156;2023-03-29T00:41:59;4.40;;;4.07;;
8435;SDS011;4255;48.730;9.156;2023-03-29T00:47:16;5.57;;;5.00;;
8435;SDS011;4255;48.730;9.156;2023-03-29T00:49:45;4.80;;;4.30;;
8435;SDS011;4255;48.730;9.156;2023-03-29T00:52:11;4.97;;;4.47;;
8435;SDS011;4255;48.730;9.156;2023-03-29T00:54:39;6.25;;;4.55;;
8435;SDS011;4255;48.730;9.156;2023-03-29T00:57:08;4.88;;;4.15;;
8435;SDS011;4255;48.730;9.156;2023-03-29T00:59:35;4.50;;;4.15;;
8435;SDS011;4255;48.730;9.156;2023-03-29T01:02:04;5.05;;;4.43;;
8435;SDS011;4255;48.730;9.156;2023-03-29T01:07:22;4.47;;;4.10;;
8435;SDS011;4255;48.730;9.156;2023-03-29T01:09:57;5.57;;;5.07;;
8435;SDS011;4255;48.730;9.156;2023-03-29T01:12:28;9.02;;;4.93;;
8435;SDS011;4255;48.730;9.156;2023-03-29T01:15:01;4.70;;;4.20;;
8435;SDS011;4255;48.730;9.156;2023-03-29T01:17:30;7.15;;;5.50;;
8435;SDS011;4255;48.730;9.156;2023-03-29T01:20:02;4.95;;;4.55;;
8435;SDS011;4255;48.730;9.156;2023-03-29T01:27:50;4.90;;;4.18;;
8435;SDS011;4255;48.730;9.156;2023-03-29T01:30:41;5.20;;;3.38;;
8435;SDS011;4255;48.730;9.156;2023-03-29T01:33:28;4.82;;;4.43;;
8435;SDS011;4255;48.730;9.156;2023-03-29T01:41:12;5.00;;;4.50;;
8435;SDS011;4255;48.730;9.156;2023-03-29T01:46:27;5.35;;;4.53;;
8435;SDS011;4255;48.730;9.156;2023-03-29T01:49:07;6.13;;;5.53;;
8435;SDS011;4255;48.730;9.156;2023-03-29T01:51:43;4.40;;;3.97;;
8435;SDS011;4255;48.730;9.156;2023-03-29T01:54:18;5.70;;;4.57;;
8435;SDS011;4255;48.730;9.156;2023-03-29T01:56:50;6.22;;;5.63;;
8435;SDS011;4255;48.730;9.156;2023-03-29T01:59:18;5.22;;;4.70;;
8435;SDS011;4255;48.730;9.156;2023-03-29T02:01:50;6.22;;;5.55;;
8435;SDS011;4255;48.730;9.156;2023-03-29T02:04:34;6.22;;;4.57;;
8435;SDS011;4255;48.730;9.156;2023-03-29T02:07:05;6.93;;;5.43;;
8435;SDS011;4255;48.730;9.156;2023-03-29T02:09:32;5.68;;;4.97;;
8435;SDS011;4255;48.730;9.156;2023-03-29T02:12:01;7.28;;;4.65;;
8435;SDS011;4255;48.730;9.156;2023-03-29T02:14:28;8.93;;;5.32;;
8435;SDS011;4255;48.730;9.156;2023-03-29T02:16:54;5.00;;;4.13;;
8435;SDS011;4255;48.730;9.156;2023-03-29T02:19:20;5.97;;;5.10;;
8435;SDS011;4255;48.730;9.156;2023-03-29T02:24:31;5.43;;;4.60;;
8435;SDS011;4255;48.730;9.156;2023-03-29T02:27:00;5.38;;;4.88;;
8435;SDS011;4255;48.730;9.156;2023-03-29T02:29:26;9.85;;;6.45;;
8435;SDS011;4255;48.730;9.156;2023-03-29T02:31:53;5.10;;;4.57;;
8435;SDS011;4255;48.730;9.156;2023-03-29T02:34:28;6.65;;;4.72;;
8435;SDS011;4255;48.730;9.156;2023-03-29T02:37:06;4.97;;;4.57;;
8435;SDS011;4255;48.730;9.156;2023-03-29T02:39:36;5.55;;;4.60;;
8435;SDS011;4255;48.730;9.156;2023-03-29T02:42:03;5.40;;;4.88;;
8435;SDS011;4255;48.730;9.156;2023-03-29T02:44:33;4.90;;;4.20;;
8435;SDS011;4255;48.730;9.156;2023-03-29T02:47:03;6.57;;;4.68;;
8435;SDS011;4255;48.730;9.156;2023-03-29T02:49:32;5.90;;;4.10;;
8435;SDS011;4255;48.730;9.156;2023-03-29T02:52:00;5.40;;;4.63;;
8435;SDS011;4255;48.730;9.156;2023-03-29T02:54:32;5.00;;;4.50;;
8435;SDS011;4255;48.730;9.156;2023-03-29T02:57:02;5.97;;;4.45;;
8435;SDS011;4255;48.730;9.156;2023-03-29T02:59:31;5.35;;;4.63;;
8435;SDS011;4255;48.730;9.156;2023-03-29T03:01:58;6.05;;;4.20;;
8435;SDS011;4255;48.730;9.156;2023-03-29T03:04:24;6.68;;;4.63;;
8435;SDS011;4255;48.730;9.156;2023-03-29T03:06:50;4.43;;;4.13;;
8435;SDS011;4255;48.730;9.156;2023-03-29T03:09:16;5.60;;;4.63;;
8435;SDS011;4255;48.730;9.156;2023-03-29T03:11:42;4.60;;;4.03;;
8435;SDS011;4255;48.730;9.156;2023-03-29T03:14:08;4.80;;;4.40;;
8435;SDS011;4255;48.730;9.156;2023-03-29T03:16:34;7.05;;;4.35;;
8435;SDS011;4255;48.730;9.156;2023-03-29T03:19:00;6.72;;;3.88;;
8435;SDS011;4255;48.730;9.156;2023-03-29T03:21:26;7.17;;;4.67;;
8435;SDS011;4255;48.730;9.156;2023-03-29T03:23:52;4.60;;;4.20;;
8435;SDS011;4255;48.730;9.156;2023-03-29T03:26:18;4.95;;;4.38;;
8435;SDS011;4255;48.730;9.156;2023-03-29T03:28:44;4.27;;;3.70;;
8435;SDS011;4255;48.730;9.156;2023-03-29T03:31:10;9.17;;;4.17;;
8435;SDS011;4255;48.730;9.156;2023-03-29T03:33:38;3.75;;;3.45;;
8435;SDS011;4255;48.730;9.156;2023-03-29T03:36:05;4.32;;;3.92;;
8435;SDS011;4255;48.730;9.156;2023-03-29T03:38:34;4.90;;;4.28;;
8435;SDS011;4255;48.730;9.156;2023-03-29T03:41:00;3.90;;;3.70;;
8435;SDS011;4255;48.730;9.156;2023-03-29T03:43:26;5.30;;;4.67;;
8435;SDS011;4255;48.730;9.156;2023-03-29T03:45:53;4.30;;;4.00;;
8435;SDS011;4255;48.730;9.156;2023-03-29T03:48:19;4.05;;;3.70;;
8435;SDS011;4255;48.730;9.156;2023-03-29T03:50:49;4.03;;;3.70;;
8435;SDS011;4255;48.730;9.156;2023-03-29T03:53:16;3.50;;;3.30;;
8435;SDS011;4255;48.730;9.156;2023-03-29T03:55:49;4.10;;;3.80;;
8435;SDS011;4255;48.730;9.156;2023-03-29T03:58:16;4.32;;;3.28;;
8435;SDS011;4255;48.730;9.156;2023-03-29T04:00:42;4.22;;;3.88;;
8435;SDS011;4255;48.730;9.156;2023-03-29T04:03:09;3.60;;;3.30;;
8435;SDS011;4255;48.730;9.156;2023-03-29T04:05:38;4.47;;;3.80;;
8435;SDS011;4255;48.730;9.156;2023-03-29T04:08:04;3.55;;;3.25;;
8435;SDS011;4255;48.730;9.156;2023-03-29T04:10:30;5.57;;;3.92;;
8435;SDS011;4255;48.730;9.156;2023-03-29T04:13:00;3.80;;;3.50;;
8435;SDS011;4255;48.730;9.156;2023-03-29T04:15:26;6.65;;;3.47;;
8435;SDS011;4255;48.730;9.156;2023-03-29T04:17:53;3.58;;;3.10;;
8435;SDS011;4255;48.730;9.156;2023-03-29T04:20:22;6.05;;;3.78;;
8435;SDS011;4255;48.730;9.156;2023-03-29T04:22:48;3.87;;;3.50;;
8435;SDS011;4255;48.730;9.156;2023-03-29T04:25:15;3.85;;;2.72;;
8435;SDS011;4255;48.730;9.156;2023-03-29T04:27:41;6.22;;;4.15;;
8435;SDS011;4255;48.730;9.156;2023-03-29T04:30:07;4.15;;;3.85;;
8435;SDS011;4255;48.730;9.156;2023-03-29T04:32:34;5.47;;;3.15;;
8435;SDS011;4255;48.730;9.156;2023-03-29T04:35:00;7.50;;;6.45;;
8435;SDS011;4255;48.730;9.156;2023-03-29T04:37:26;6.85;;;5.45;;
8435;SDS011;4255;48.730;9.156;2023-03-29T04:39:53;4.13;;;3.33;;
8435;SDS011;4255;48.730;9.156;2023-03-29T04:42:19;7.60;;;5.30;;
8435;SDS011;4255;48.730;9.156;2023-03-29T04:44:45;3.70;;;3.40;;
8435;SDS011;4255;48.730;9.156;2023-03-29T04:47:10;5.60;;;2.83;;
8435;SDS011;4255;48.730;9.156;2023-03-29T04:49:39;3.83;;;2.88;;
8435;SDS011;4255;48.730;9.156;2023-03-29T04:52:06;3.33;;;3.03;;
8435;SDS011;4255;48.730;9.156;2023-03-29T04:54:32;3.33;;;2.60;;
8435;SDS011;4255;48.730;9.156;2023-03-29T04:56:58;2.87;;;2.67;;
8435;SDS011;4255;48.730;9.156;2023-03-29T04:59:24;4.23;;;2.97;;
8435;SDS011;4255;48.730;9.156;2023-03-29T05:01:49;3.37;;;3.07;;
8435;SDS011;4255;48.730;9.156;2023-03-29T05:04:15;3.30;;;2.63;;
8435;SDS011;4255;48.730;9.156;2023-03-29T05:06:42;3.70;;;2.83;;
8435;SDS011;4255;48.730;9.156;2023-03-29T05:09:07;6.00;;;3.20;;
8435;SDS011;4255;48.730;9.156;2023-03-29T05:11:34;2.97;;;2.60;;
8435;SDS011;4255;48.730;9.156;2023-03-29T05:14:00;4.03;;;3.00;;
8435;SDS011;4255;48.730;9.156;2023-03-29T05:16:27;2.67;;;2.47;;
8435;SDS011;4255;48.730;9.156;2023-03-29T05:18:54;3.58;;;2.50;;
8435;SDS011;4255;48.730;9.156;2023-03-29T05:21:21;4.15;;;3.38;;
8435;SDS011;4255;48.730;9.156;2023-03-29T05:23:46;4.93;;;4.43;;
8435;SDS011;4255;48.730;9.156;2023-03-29T05:26:12;4.82;;;4.32;;
8435;SDS011;4255;48.730;9.156;2023-03-29T05:28:39;4.40;;;3.92;;
8435;SDS011;4255;48.730;9.156;2023-03-29T05:31:06;5.25;;;4.45;;
8435;SDS011;4255;48.730;9.156;2023-03-29T05:33:32;4.53;;;3.15;;
8435;SDS011;4255;48.730;9.156;2023-03-29T05:36:03;10.00;;;3.97;;
8435;SDS011;4255;48.730;9.156;2023-03-29T05:38:31;4.20;;;3.10;;
8435;SDS011;4255;48.730;9.156;2023-03-29T05:40:57;4.15;;;3.33;;
8435;SDS011;4255;48.730;9.156;2023-03-29T05:43:23;3.30;;;2.40;;
8435;SDS011;4255;48.730;9.156;2023-03-29T05:45:51;4.15;;;3.10;;
8435;SDS011;4255;48.730;9.156;2023-03-29T05:48:18;5.43;;;2.70;;
8435;SDS011;4255;48.730;9.156;2023-03-29T05:50:48;2.50;;;2.40;;
8435;SDS011;4255;48.730;9.156;2023-03-29T05:53:15;5.63;;;3.00;;
8435;SDS011;4255;48.730;9.156;2023-03-29T05:55:41;6.30;;;3.20;;
8435;SDS011;4255;48.730;9.156;2023-03-29T05:58:07;2.93;;;2.73;;
8435;SDS011;4255;48.730;9.156;2023-03-29T06:00:34;2.47;;;2.28;;
8435;SDS011;4255;48.730;9.156;2023-03-29T06:03:02;3.03;;;2.75;;
8435;SDS011;4255;48.730;9.156;2023-03-29T06:05:27;5.38;;;2.72;;
8435;SDS011;4255;48.730;9.156;2023-03-29T06:07:53;3.07;;;2.87;;
8435;SDS011;4255;48.730;9.156;2023-03-29T06:10:20;3.20;;;2.90;;
8435;SDS011;4255;48.730;9.156;2023-03-29T06:12:47;3.85;;;3.10;;
8435;SDS011;4255;48.730;9.156;2023-03-29T06:15:14;3.20;;;2.90;;
8435;SDS011;4255;48.730;9.156;2023-03-29T06:17:40;9.27;;;2.58;;
8435;SDS011;4255;48.730;9.156;2023-03-29T06:20:09;2.60;;;2.33;;
8435;SDS011;4255;48.730;9.156;2023-03-29T06:22:36;4.57;;;3.30;;
8435;SDS011;4255;48.730;9.156;2023-03-29T06:25:03;6.50;;;4.28;;
8435;SDS011;4255;48.730;9.156;2023-03-29T06:27:30;6.50;;;4.00;;
8435;SDS011;4255;48.730;9.156;2023-03-29T06:29:56;3.45;;;2.80;;
8435;SDS011;4255;48.730;9.156;2023-03-29T06:32:23;3.83;;;3.53;;
8435;SDS011;4255;48.730;9.156;2023-03-29T06:34:49;3.85;;;2.20;;
8435;SDS011;4255;48.730;9.156;2023-03-29T06:37:15;3.85;;;2.80;;
8435;SDS011;4255;48.730;9.156;2023-03-29T06:39:41;9.03;;;2.70;;
8435;SDS011;4255;48.730;9.156;2023-03-29T06:42:06;3.20;;;2.90;;
8435;SDS011;4255;48.730;9.156;2023-03-29T06:44:32;5.80;;;3.33;;
8435;SDS011;4255;48.730;9.156;2023-03-29T06:46:58;3.87;;;3.17;;
8435;SDS011;4255;48.730;9.156;2023-03-29T06:49:23;3.70;;;3.30;;
8435;SDS011;4255;48.730;9.156;2023-03-29T06:51:50;3.17;;;2.85;;
8435;SDS011;4255;48.730;9.156;2023-03-29T06:54:17;5.03;;;2.55;;
8435;SDS011;4255;48.730;9.156;2023-03-29T06:56:43;8.27;;;2.80;;
8435;SDS011;4255;48.730;9.156;2023-03-29T06:59:11;2.60;;;2.40;;
8435;SDS011;4255;48.730;9.156;2023-03-29T07:01:37;4.15;;;2.40;;
8435;SDS011;4255;48.730;9.156;2023-03-29T07:04:03;7.10;;;2.90;;
8435;SDS011;4255;48.730;9.156;2023-03-29T07:06:32;2.90;;;2.70;;
8435;SDS011;4255;48.730;9.156;2023-03-29T07:08:58;3.45;;;2.60;;
8435;SDS011;4255;48.730;9.156;2023-03-29T07:11:25;3.63;;;3.30;;
8435;SDS011;4255;48.730;9.156;2023-03-29T07:13:51;6.13;;;4.47;;
8435;SDS011;4255;48.730;9.156;2023-03-29T07:16:17;5.67;;;2.80;;
8435;SDS011;4255;48.730;9.156;2023-03-29T07:18:43;2.83;;;2.70;;
8435;SDS011;4255;48.730;9.156;2023-03-29T07:21:10;5.97;;;2.43;;
8435;SDS011;4255;48.730;9.156;2023-03-29T07:23:37;3.83;;;2.20;;
8435;SDS011;4255;48.730;9.156;2023-03-29T07:26:06;3.60;;;2.65;;
8435;SDS011;4255;48.730;9.156;2023-03-29T07:28:32;2.63;;;2.42;;
8435;SDS011;4255;48.730;9.156;2023-03-29T07:31:04;2.53;;;2.35;;
8435;SDS011;4255;48.730;9.156;2023-03-29T07:33:32;2.20;;;2.10;;
8435;SDS011;4255;48.730;9.156;2023-03-29T07:35:58;3.83;;;2.35;;
8435;SDS011;4255;48.730;9.156;2023-03-29T07:38:24;9.88;;;2.65;;
8435;SDS011;4255;48.730;9.156;2023-03-29T07:40:51;3.22;;;2.92;;
8435;SDS011;4255;48.730;9.156;2023-03-29T07:43:18;2.72;;;2.40;;
8435;SDS011;4255;48.730;9.156;2023-03-29T07:45:44;2.85;;;2.65;;
8435;SDS011;4255;48.730;9.156;2023-03-29T07:48:11;3.00;;;2.78;;
8435;SDS011;4255;48.730;9.156;2023-03-29T07:50:37;4.13;;;3.50;;
8435;SDS011;4255;48.730;9.156;2023-03-29T07:53:02;4.03;;;3.07;;
8435;SDS011;4255;48.730;9.156;2023-03-29T07:55:28;2.93;;;2.63;;
8435;SDS011;4255;48.730;9.156;2023-03-29T07:57:54;6.63;;;3.17;;
8435;SDS011;4255;48.730;9.156;2023-03-29T08:00:19;6.10;;;2.60;;
8435;SDS011;4255;48.730;9.156;2023-03-29T08:02:46;2.53;;;2.33;;
8435;SDS011;4255;48.730;9.156;2023-03-29T08:05:15;4.15;;;2.42;;
8435;SDS011;4255;48.730;9.156;2023-03-29T08:07:41;2.03;;;1.92;;
8435;SDS011;4255;48.730;9.156;2023-03-29T08:10:12;4.93;;;2.50;;
8435;SDS011;4255;48.730;9.156;2023-03-29T08:12:43;2.30;;;2.20;;
8435;SDS011;4255;48.730;9.156;2023-03-29T08:15:10;2.75;;;2.15;;
8435;SDS011;4255;48.730;9.156;2023-03-29T08:17:37;3.20;;;2.20;;
8435;SDS011;4255;48.730;9.156;2023-03-29T08:20:03;2.67;;;2.53;;
8435;SDS011;4255;48.730;9.156;2023-03-29T08:22:30;2.20;;;2.10;;
8435;SDS011;4255;48.730;9.156;2023-03-29T08:24:57;5.85;;;2.67;;
8435;SDS011;4255;48.730;9.156;2023-03-29T08:27:22;2.40;;;2.20;;
8435;SDS011;4255;48.730;9.156;2023-03-29T08:29:48;4.07;;;2.72;;
8435;SDS011;4255;48.730;9.156;2023-03-29T08:32:14;6.70;;;2.50;;
8435;SDS011;4255;48.730;9.156;2023-03-29T08:34:40;3.30;;;3.00;;
8435;SDS011;4255;48.730;9.156;2023-03-29T08:37:05;2.23;;;2.00;;
8435;SDS011;4255;48.730;9.156;2023-03-29T08:39:32;3.67;;;2.30;;
8435;SDS011;4255;48.730;9.156;2023-03-29T08:49:58;2.20;;;2.00;;
8435;SDS011;4255;48.730;9.156;2023-03-29T08:54:58;2.65;;;2.45;;
8435;SDS011;4255;48.730;9.156;2023-03-29T08:57:30;6.47;;;2.30;;
8435;SDS011;4255;48.730;9.156;2023-03-29T08:59:58;2.60;;;2.40;;
8435;SDS011;4255;48.730;9.156;2023-03-29T09:02:26;2.70;;;2.40;;
8435;SDS011;4255;48.730;9.156;2023-03-29T09:04:56;2.53;;;2.30;;
8435;SDS011;4255;48.730;9.156;2023-03-29T09:07:31;2.38;;;2.17;;
8435;SDS011;4255;48.730;9.156;2023-03-29T09:09:57;3.27;;;2.20;;
8435;SDS011;4255;48.730;9.156;2023-03-29T09:18:00;2.47;;;2.33;;
8435;SDS011;4255;48.730;9.156;2023-03-29T09:31:41;2.77;;;2.47;;
8435;SDS011;4255;48.730;9.156;2023-03-29T09:36:53;2.67;;;2.40;;
8435;SDS011;4255;48.730;9.156;2023-03-29T09:39:27;2.40;;;2.27;;
8435;SDS011;4255;48.730;9.156;2023-03-29T09:41:57;2.40;;;2.30;;
8435;SDS011;4255;48.730;9.156;2023-03-29T09:44:37;4.90;;;2.40;;
8435;SDS011;4255;48.730;9.156;2023-03-29T09:47:13;5.30;;;2.47;;
8435;SDS011;4255;48.730;9.156;2023-03-29T09:49:51;3.17;;;2.63;;
8435;SDS011;4255;48.730;9.156;2023-03-29T09:52:21;4.53;;;2.63;;
8435;SDS011;4255;48.730;9.156;2023-03-29T09:54:47;3.33;;;2.40;;
8435;SDS011;4255;48.730;9.156;2023-03-29T09:57:17;2.40;;;2.20;;
8435;SDS011;4255;48.730;9.156;2023-03-29T09:59:44;2.40;;;2.20;;
8435;SDS011;4255;48.730;9.156;2023-03-29T10:02:12;2.27;;;2.07;;
8435;SDS011;4255;48.730;9.156;2023-03-29T10:04:39;2.50;;;2.30;;
8435;SDS011;4255;48.730;9.156;2023-03-29T10:07:06;2.80;;;2.50;;
8435;SDS011;4255;48.730;9.156;2023-03-29T10:09:40;3.03;;;2.70;;
8435;SDS011;4255;48.730;9.156;2023-03-29T10:12:09;2.63;;;2.50;;
8435;SDS011;4255;48.730;9.156;2023-03-29T10:17:09;2.10;;;1.90;;
8435;SDS011;4255;48.730;9.156;2023-03-29T10:19:46;2.50;;;2.30;;
8435;SDS011;4255;48.730;9.156;2023-03-29T10:22:16;2.50;;;2.30;;
8435;SDS011;4255;48.730;9.156;2023-03-29T10:24:48;2.37;;;2.27;;
8435;SDS011;4255;48.730;9.156;2023-03-29T10:27:17;4.40;;;2.77;;
8435;SDS011;4255;48.730;9.156;2023-03-29T10:29:45;3.10;;;2.80;;
8435;SDS011;4255;48.730;9.156;2023-03-29T10:34:46;2.50;;;2.30;;
8435;SDS011;4255;48.730;9.156;2023-03-29T10:37:13;5.00;;;2.97;;
8435;SDS011;4255;48.730;9.156;2023-03-29T10:39:43;5.23;;;2.60;;
8435;SDS011;4255;48.730;9.156;2023-03-29T10:42:14;3.40;;;3.20;;
8435;SDS011;4255;48.730;9.156;2023-03-29T10:44:41;3.00;;;2.67;;
8435;SDS011;4255;48.730;9.156;2023-03-29T10:47:17;5.23;;;2.30;;
8435;SDS011;4255;48.730;9.156;2023-03-29T10:49:45;3.63;;;2.53;;
8435;SDS011;4255;48.730;9.156;2023-03-29T10:52:18;3.07;;;2.67;;
8435;SDS011;4255;48.730;9.156;2023-03-29T10:54:45;2.37;;;2.17;;
8435;SDS011;4255;48.730;9.156;2023-03-29T10:57:13;2.93;;;2.73;;
8435;SDS011;4255;48.730;9.156;2023-03-29T11:03:14;2.13;;;2.03;;
8435;SDS011;4255;48.730;9.156;2023-03-29T11:05:24;4.00;;;2.63;;
8435;SDS011;4255;48.730;9.156;2023-03-29T11:16:16;2.47;;;2.30;;
8435;SDS011;4255;48.730;9.156;2023-03-29T11:27:11;2.30;;;2.20;;
8435;SDS011;4255;48.730;9.156;2023-03-29T11:38:12;4.97;;;2.20;;
8435;SDS011;4255;48.730;9.156;2023-03-29T11:46:37;4.20;;;2.37;;
8435;SDS011;4255;48.730;9.156;2023-03-29T11:49:16;1.80;;;1.70;;
8435;SDS011;4255;48.730;9.156;2023-03-29T11:54:23;3.67;;;2.37;;
8435;SDS011;4255;48.730;9.156;2023-03-29T11:57:04;1.93;;;1.70;;
8435;SDS011;4255;48.730;9.156;2023-03-29T11:59:38;2.13;;;1.90;;
8435;SDS011;4255;48.730;9.156;2023-03-29T12:02:15;2.47;;;2.27;;
8435;SDS011;4255;48.730;9.156;2023-03-29T12:04:51;2.00;;;1.80;;
8435;SDS011;4255;48.730;9.156;2023-03-29T12:07:38;2.70;;;1.97;;
8435;SDS011;4255;48.730;9.156;2023-03-29T12:10:16;1.53;;;1.43;;
8435;SDS011;4255;48.730;9.156;2023-03-29T12:15:30;1.80;;;1.43;;
8435;SDS011;4255;48.730;9.156;2023-03-29T12:18:04;2.13;;;1.80;;
8435;SDS011;4255;48.730;9.156;2023-03-29T12:20:40;2.60;;;1.93;;
8435;SDS011;4255;48.730;9.156;2023-03-29T12:23:06;1.87;;;1.70;;
8435;SDS011;4255;48.730;9.156;2023-03-29T12:25:40;2.40;;;1.50;;
8435;SDS011;4255;48.730;9.156;2023-03-29T12:28:26;2.80;;;1.70;;
8435;SDS011;4255;48.730;9.156;2023-03-29T12:38:46;2.70;;;2.00;;
8435;SDS011;4255;48.730;9.156;2023-03-29T12:41:19;2.23;;;1.60;;
8435;SDS011;4255;48.730;9.156;2023-03-29T12:43:47;2.90;;;1.87;;
8435;SDS011;4255;48.730;9.156;2023-03-29T12:46:14;2.40;;;2.00;;
8435;SDS011;4255;48.730;9.156;2023-03-29T12:48:48;4.33;;;2.20;;
8435;SDS011;4255;48.730;9.156;2023-03-29T12:51:21;2.50;;;2.00;;
8435;SDS011;4255;48.730;9.156;2023-03-29T12:54:14;2.13;;;1.90;;
8435;SDS011;4255;48.730;9.156;2023-03-29T12:59:44;3.20;;;2.10;;
8435;SDS011;4255;48.730;9.156;2023-03-29T13:04:54;4.97;;;2.00;;
8435;SDS011;4255;48.730;9.156;2023-03-29T13:12:35;2.50;;;2.40;;
8435;SDS011;4255;48.730;9.156;2023-03-29T13:17:48;1.67;;;1.53;;
8435;SDS011;4255;48.730;9.156;2023-03-29T13:28:46;2.77;;;2.10;;
8435;SDS011;4255;48.730;9.156;2023-03-29T13:31:31;1.77;;;1.67;;
8435;SDS011;4255;48.730;9.156;2023-03-29T13:37:40;1.90;;;1.80;;
8435;SDS011;4255;48.730;9.156;2023-03-29T13:40:24;1.77;;;1.67;;
8435;SDS011;4255;48.730;9.156;2023-03-29T13:45:42;2.13;;;2.03;;
8435;SDS011;4255;48.730;9.156;2023-03-29T13:48:20;3.87;;;2.47;;
8435;SDS011;4255;48.730;9.156;2023-03-29T13:53:35;2.80;;;1.93;;
8435;SDS011;4255;48.730;9.156;2023-03-29T13:56:05;3.23;;;2.00;;
8435;SDS011;4255;48.730;9.156;2023-03-29T13:58:40;3.20;;;1.90;;
8435;SDS011;4255;48.730;9.156;2023-03-29T14:01:14;9.57;;;2.37;;
8435;SDS011;4255;48.730;9.156;2023-03-29T14:03:48;3.70;;;2.13;;
8435;SDS011;4255;48.730;9.156;2023-03-29T14:06:17;2.07;;;1.97;;
8435;SDS011;4255;48.730;9.156;2023-03-29T14:08:54;3.43;;;1.90;;
8435;SDS011;4255;48.730;9.156;2023-03-29T14:11:26;3.83;;;2.10;;
8435;SDS011;4255;48.730;9.156;2023-03-29T14:13:53;2.50;;;2.00;;
8435;SDS011;4255;48.730;9.156;2023-03-29T14:16:21;2.30;;;2.10;;
8435;SDS011;4255;48.730;9.156;2023-03-29T14:18:58;4.30;;;2.27;;
8435;SDS011;4255;48.730;9.156;2023-03-29T14:21:26;3.10;;;2.40;;
8435;SDS011;4255;48.730;9.156;2023-03-29T14:24:01;4.40;;;2.40;;
8435;SDS011;4255;48.730;9.156;2023-03-29T14:26:31;4.53;;;1.80;;
8435;SDS011;4255;48.730;9.156;2023-03-29T14:28:58;2.70;;;2.03;;
8435;SDS011;4255;48.730;9.156;2023-03-29T14:33:55;3.20;;;2.00;;
8435;SDS011;4255;48.730;9.156;2023-03-29T14:36:23;4.73;;;2.07;;
8435;SDS011;4255;48.730;9.156;2023-03-29T14:38:51;2.37;;;2.17;;
8435;SDS011;4255;48.730;9.156;2023-03-29T14:41:21;3.67;;;2.50;;
8435;SDS011;4255;48.730;9.156;2023-03-29T14:43:48;2.13;;;1.87;;
8435;SDS011;4255;48.730;9.156;2023-03-29T14:46:16;1.90;;;1.80;;
8435;SDS011;4255;48.730;9.156;2023-03-29T14:48:45;2.90;;;2.07;;
8435;SDS011;4255;48.730;9.156;2023-03-29T14:51:11;4.83;;;2.40;;
8435;SDS011;4255;48.730;9.156;2023-03-29T14:53:37;2.53;;;2.23;;
8435;SDS011;4255;48.730;9.156;2023-03-29T14:56:04;2.40;;;2.20;;
8435;SDS011;4255;48.730;9.156;2023-03-29T14:58:32;2.13;;;1.90;;
8435;SDS011;4255;48.730;9.156;2023-03-29T15:01:06;2.57;;;2.10;;
8435;SDS011;4255;48.730;9.156;2023-03-29T15:03:45;2.20;;;2.10;;
8435;SDS011;4255;48.730;9.156;2023-03-29T15:06:20;4.20;;;2.10;;
8435;SDS011;4255;48.730;9.156;2023-03-29T15:08:50;2.13;;;2.00;;
8435;SDS011;4255;48.730;9.156;2023-03-29T15:11:19;9.40;;;2.77;;
8435;SDS011;4255;48.730;9.156;2023-03-29T15:13:48;3.57;;;2.17;;
8435;SDS011;4255;48.730;9.156;2023-03-29T15:16:19;9.33;;;2.27;;
8435;SDS011;4255;48.730;9.156;2023-03-29T15:18:47;6.17;;;4.33;;
8435;SDS011;4255;48.730;9.156;2023-03-29T15:21:15;1.93;;;1.50;;
8435;SDS011;4255;48.730;9.156;2023-03-29T15:23:49;4.33;;;2.10;;
8435;SDS011;4255;48.730;9.156;2023-03-29T15:26:33;3.50;;;2.13;;
8435;SDS011;4255;48.730;9.156;2023-03-29T15:29:10;3.97;;;2.00;;
8435;SDS011;4255;48.730;9.156;2023-03-29T15:31:39;3.43;;;2.10;;
8435;SDS011;4255;48.730;9.156;2023-03-29T15:34:06;2.10;;;1.93;;
8435;SDS011;4255;48.730;9.156;2023-03-29T15:36:37;3.13;;;2.00;;
8435;SDS011;4255;48.730;9.156;2023-03-29T15:39:11;2.90;;;1.83;;
8435;SDS011;4255;48.730;9.156;2023-03-29T15:41:38;3.83;;;2.03;;
8435;SDS011;4255;48.730;9.156;2023-03-29T15:44:04;2.93;;;2.00;;
8435;SDS011;4255;48.730;9.156;2023-03-29T15:46:30;3.83;;;2.07;;
8435;SDS011;4255;48.730;9.156;2023-03-29T15:48:56;2.47;;;2.00;;
8435;SDS011;4255;48.730;9.156;2023-03-29T15:51:22;3.13;;;2.00;;
8435;SDS011;4255;48.730;9.156;2023-03-29T15:53:48;6.73;;;3.00;;
8435;SDS011;4255;48.730;9.156;2023-03-29T15:56:14;3.80;;;1.97;;
8435;SDS011;4255;48.730;9.156;2023-03-29T15:58:42;7.17;;;2.20;;
8435;SDS011;4255;48.730;9.156;2023-03-29T16:01:15;3.73;;;2.50;;
8435;SDS011;4255;48.730;9.156;2023-03-29T16:04:02;3.53;;;2.90;;
8435;SDS011;4255;48.730;9.156;2023-03-29T16:06:29;4.20;;;3.73;;
8435;SDS011;4255;48.730;9.156;2023-03-29T16:08:55;4.93;;;2.30;;
8435;SDS011;4255;48.730;9.156;2023-03-29T16:11:21;2.40;;;1.90;;
8435;SDS011;4255;48.730;9.156;2023-03-29T16:13:47;4.17;;;2.40;;
8435;SDS011;4255;48.730;9.156;2023-03-29T16:16:13;4.17;;;2.60;;
8435;SDS011;4255;48.730;9.156;2023-03-29T16:18:39;21.10;;;6.23;;
8435;SDS011;4255;48.730;9.156;2023-03-29T16:21:05;9.83;;;3.73;;
8435;SDS011;4255;48.730;9.156;2023-03-29T16:23:30;5.23;;;2.77;;
8435;SDS011;4255;48.730;9.156;2023-03-29T16:25:56;6.50;;;2.30;;
8435;SDS011;4255;48.730;9.156;2023-03-29T16:28:23;10.50;;;4.07;;
8435;SDS011;4255;48.730;9.156;2023-03-29T16:30:49;9.53;;;3.27;;
8435;SDS011;4255;48.730;9.156;2023-03-29T16:33:15;6.00;;;2.97;;
8435;SDS011;4255;48.730;9.156;2023-03-29T16:35:41;4.03;;;1.97;;
8435;SDS011;4255;48.730;9.156;2023-03-29T16:38:07;5.70;;;2.40;;
8435;SDS011;4255;48.730;9.156;2023-03-29T16:40:33;3.47;;;2.60;;
8435;SDS011;4255;48.730;9.156;2023-03-29T16:42:59;3.90;;;2.10;;
8435;SDS011;4255;48.730;9.156;2023-03-29T16:45:25;4.63;;;2.30;;
8435;SDS011;4255;48.730;9.156;2023-03-29T16:47:51;5.33;;;2.87;;
8435;SDS011;4255;48.730;9.156;2023-03-29T16:50:18;3.87;;;2.40;;
8435;SDS011;4255;48.730;9.156;2023-03-29T16:52:44;2.50;;;2.27;;
8435;SDS011;4255;48.730;9.156;2023-03-29T16:55:12;5.13;;;2.57;;
8435;SDS011;4255;48.730;9.156;2023-03-29T16:57:39;6.50;;;3.03;;
8435;SDS011;4255;48.730;9.156;2023-03-29T17:00:06;5.10;;;2.90;;
8435;SDS011;4255;48.730;9.156;2023-03-29T17:02:34;3.73;;;3.10;;
8435;SDS011;4255;48.730;9.156;2023-03-29T17:05:01;6.90;;;3.70;;
8435;SDS011;4255;48.730;9.156;2023-03-29T17:07:27;2.97;;;2.53;;
8435;SDS011;4255;48.730;9.156;2023-03-29T17:09:53;2.90;;;2.60;;
8435;SDS011;4255;48.730;9.156;2023-03-29T17:12:19;2.83;;;2.60;;
8435;SDS011;4255;48.730;9.156;2023-03-29T17:14:46;7.20;;;2.60;;
8435;SDS011;4255;48.730;9.156;2023-03-29T17:17:12;5.90;;;2.87;;
8435;SDS011;4255;48.730;9.156;2023-03-29T17:19:38;10.00;;;2.73;;
8435;SDS011;4255;48.730;9.156;2023-03-29T17:22:04;8.73;;;3.30;;
8435;SDS011;4255;48.730;9.156;2023-03-29T17:24:29;5.83;;;3.53;;
8435;SDS011;4255;48.730;9.156;2023-03-29T17:26:55;5.78;;;3.58;;
8435;SDS011;4255;48.730;9.156;2023-03-29T17:29:21;5.63;;;3.20;;
8435;SDS011;4255;48.730;9.156;2023-03-29T17:31:47;4.83;;;3.33;;
8435;SDS011;4255;48.730;9.156;2023-03-29T17:34:16;3.70;;;3.23;;
8435;SDS011;4255;48.730;9.156;2023-03-29T17:36:43;12.93;;;3.07;;
8435;SDS011;4255;48.730;9.156;2023-03-29T17:39:10;5.50;;;2.90;;
8435;SDS011;4255;48.730;9.156;2023-03-29T17:41:37;2.90;;;2.80;;